Nearby METAR Reports

KLNK - Lincoln, Nebraska, USA
Distance from station: WNW 8mi, 13km
Updated: Wed, 16-Oct-2019 3:54am CDT
Overcast
Overcast
 Wind from N
Wind: N 9 mph , 15 km/h
Temperature: 45°F , 7°C
Wind Chill: 40°F , 4°C
Dew Point: 36°F , 2°C
Humidity: 71%
Barometer: 30.23 inHg , 1023.7 hPa
Clouds: Overcast
Visibility: 10 miles , 16 km
Cloud details: Overcast 2600 ft
2019/10/16 08:54 KLNK 160854Z AUTO 36008KT 10SM OVC026 07/02 A3023 RMK AO2 SLP240 T00670017 50001
KAHQ - Wahoo, Nebraska, USA
Distance from station: N 31mi, 49km
Updated: Wed, 16-Oct-2019 4:15am CDT
Overcast
Overcast
 Wind from NNW
Wind: NNW 13 mph , 20 km/h, Gust: 20 mph , 31 km/h
Temperature: 45°F , 7°C
Wind Chill: 39°F , 4°C
Dew Point: 36°F , 2°C
Humidity: 71%
Barometer: 30.22 inHg , 1023.4 hPa
Clouds: Overcast
Visibility: 10 miles , 16 km
Cloud details: Overcast 2400 ft
2019/10/16 09:15 KAHQ 160915Z AUTO 33011G17KT 10SM OVC024 07/02 A3022 RMK AO2 T00650020
 
KBIE - Beatrice Municip, Nebraska, USA
Distance from station: S 36mi, 57km
Updated: Wed, 16-Oct-2019 4:15am CDT
Overcast
Overcast
 Wind from N
Wind: N 14 mph , 22 km/h, Gust: 17 mph , 28 km/h
Temperature: 45°F , 7°C
Wind Chill: 39°F , 4°C
Dew Point: 36°F , 2°C
Humidity: 71%
Barometer: 30.22 inHg , 1023.4 hPa
Clouds: Overcast
Visibility: 10 miles , 16 km
Cloud details: Overcast 2400 ft
2019/10/16 09:15 KBIE 160915Z AUTO 36012G15KT 10SM OVC024 07/02 A3022 RMK AO2 T00710023
KMLE - Omaha/Millard, Nebraska, USA
Distance from station: NE 39mi, 63km
Updated: Wed, 16-Oct-2019 4:15am CDT
Overcast
Overcast
 Wind from NW
Wind: NW 9 mph , 15 km/h
Temperature: 46°F , 8°C
Wind Chill: 41°F , 5°C
Dew Point: 36°F , 2°C
Humidity: 66%
Barometer: 30.20 inHg , 1022.7 hPa
Clouds: Overcast
Visibility: 10 miles , 16 km
Cloud details: Overcast 2400 ft
2019/10/16 09:15 KMLE 160915Z AUTO 32008KT 10SM OVC024 08/02 A3020 RMK AO2 T00750020
 
KPMV - Plattsmouth Muni, Nebraska, USA
Distance from station: ENE 39mi, 63km
Updated: Wed, 16-Oct-2019 4:15am CDT
Overcast
Overcast
 Wind from NW
Wind: NW 14 mph , 22 km/h
Temperature: 45°F , 7°C
Wind Chill: 39°F , 4°C
Dew Point: 37°F , 3°C
Humidity: 76%
Barometer: 30.19 inHg , 1022.4 hPa
Clouds: Overcast
Visibility: 10 miles , 16 km
Cloud details: Overcast 2300 ft
2019/10/16 09:15 KPMV 160915Z AUTO 32012KT 10SM OVC023 07/03 A3019 RMK AO2 T00650031
KAFK - Nebraska City, Nebraska, USA
Distance from station: ESE 43mi, 69km
Updated: Wed, 16-Oct-2019 4:15am CDT
Overcast
Overcast
 Wind from NNW
Wind: NNW 9 mph , 15 km/h
Temperature: 45°F , 7°C
Wind Chill: 40°F , 4°C
Dew Point: 36°F , 2°C
Humidity: 71%
Barometer: 30.20 inHg , 1022.7 hPa
Clouds: Overcast
Visibility: 10 miles , 16 km
Cloud details: Overcast 2500 ft
2019/10/16 09:15 KAFK 160915Z AUTO 34008KT 320V020 10SM OVC025 07/02 A3020 RMK AO2 T00700017
 
KOFF - Offutt Afb/Belle, Nebraska, USA
Distance from station: ENE 44mi, 70km
Updated: Wed, 16-Oct-2019 3:56am CDT
Overcast
Overcast
 Wind from NNW
Wind: NNW 10 mph , 17 km/h
Temperature: 45°F , 7°C
Wind Chill: 40°F , 4°C
Dew Point: 36°F , 2°C
Humidity: 71%
Barometer: 30.23 inHg , 1023.7 hPa
Clouds: Overcast
Visibility: 10 miles , 16 km
Cloud details: Overcast 4000 ft
2019/10/16 08:56 KOFF 160856Z 34009KT 10SM OVC040 07/02 A3023 RMK AO2A SLP239 RVRNO $
KFET - Fremont Muni Arp, Nebraska, USA
Distance from station: N 46mi, 74km
Updated: Wed, 16-Oct-2019 4:15am CDT
Overcast
Overcast
 Wind from NW
Wind: NW 14 mph , 22 km/h, Gust: 18 mph , 30 km/h
Temperature: 45°F , 7°C
Wind Chill: 39°F , 4°C
Dew Point: 36°F , 2°C
Humidity: 71%
Barometer: 30.21 inHg , 1023 hPa
Clouds: Overcast
Visibility: 10 miles , 16 km
Cloud details: Overcast 2300 ft
2019/10/16 09:15 KFET 160915Z AUTO 32012G16KT 10SM OVC023 07/02 A3021 RMK AO2 T00650022
 
KBTA - Blair Muni, Nebraska, USA
Distance from station: NNE 51mi, 82km
Updated: Wed, 16-Oct-2019 4:15am CDT
Overcast
Overcast
 Wind from NNW
Wind: NNW 10 mph , 17 km/h, Gust: 20 mph , 31 km/h
Temperature: 43°F , 6°C
Wind Chill: 37°F , 3°C
Dew Point: 34°F , 1°C
Humidity: 71%
Barometer: 30.19 inHg , 1022.4 hPa
Clouds: Overcast
Visibility: 10 miles , 16 km
Cloud details: Overcast 2300 ft
2019/10/16 09:15 KBTA 160915Z AUTO 34009G17KT 10SM OVC023 06/01 A3019 RMK AO2 T00600012
KJYR - York, Nebraska, USA
Distance from station: W 52mi, 84km
Updated: Wed, 16-Oct-2019 4:15am CDT
Clear
Clear
 Wind from NW
Wind: NW 7 mph , 11 km/h
Temperature: 32°F , 0°C
Wind Chill: 25°F , -4°C
Dew Point: 32°F , 0°C
Humidity: 100%
Barometer: 30.23 inHg , 1023.7 hPa
Clouds: Clear
Visibility: 10 miles , 16 km
2019/10/16 09:15 KJYR 160915Z AUTO 31006KT 10SM CLR 00/00 A3023 RMK AO2
 
KOMA - Omaha/Eppley, Nebraska, USA
Distance from station: NE 53mi, 85km
Updated: Wed, 16-Oct-2019 3:52am CDT
Overcast
Overcast
 Wind from N
Wind: N 16 mph , 26 km/h, Gust: 24 mph , 39 km/h
Temperature: 45°F , 7°C
Wind Chill: 38°F , 3°C
Dew Point: 36°F , 2°C
Humidity: 71%
Barometer: 30.19 inHg , 1022.4 hPa
Clouds: Overcast
Visibility: 10 miles , 16 km
Cloud details: Overcast 2400 ft
2019/10/16 08:52 KOMA 160852Z 35014G21KT 10SM OVC024 07/02 A3019 RMK AO2 SLP225 T00670022 56001 $
KOLU - Columbus Muni, Nebraska, USA
Distance from station: NW 58mi, 93km
Updated: Wed, 16-Oct-2019 3:56am CDT
Clear
Clear
 Wind from W
Wind: W 6 mph , 9 km/h
Temperature: 36°F , 2°C
Wind Chill: 31°F , -1°C
Dew Point: 30°F , -1°C
Humidity: 81%
Barometer: 30.23 inHg , 1023.7 hPa
Clouds: Clear
Visibility: 10 miles , 16 km
2019/10/16 08:56 KOLU 160856Z AUTO 28005KT 10SM CLR 02/M01 A3023 RMK AO2 SLP247 T00171006 53001 FZRANO